Terminal Aerodrome Forecast
Issued by NWS

Current Version | Previous Version | Text Only | Print | Product List | Glossary On
Versions: 1 2 3 4 5 6 7 8 9 10 11 12 13 14
947
FTUS44 KEPZ 201120
TAFDMN
TAF
KDMN 201120Z 2012/2112 22013KT P6SM SCT060 BKN120
     FM202100 28017G27KT P6SM SCT050 BKN100
     FM210100 27008KT P6SM SCT100 BKN250=

USA.gov is the U.S. government's official web portal to all federal, state and local government web resources and services.